04W

Field of Dreams Airport

Hinckley, Minnesota, USA
METAR K04W 182215Z AUTO 14004KT 10SM CLR 25/15 A3003 RMK AO2
Observed Flight Rules
Jul-18 @ 22:15 UTC (9 minutes ago) Visual Flight Rules
Wind Visibility Clouds
140° at 4 knots 10 miles
  • Clear skies
Temperatures Readings
Current 25°C / 77°F
Dewpoint 15°C / 59°F
Humidity 54%
Altimeter 30.03" Hg
Pressure 1017 hPa
Elevation 311
METAR K04W 182215Z AUTO 14004KT 10SM CLR 25/15 A3003 RMK AO2
Observed Flight Rules
Jul-18 @ 22:15 UTC
(9 minutes ago)
VFR
Wind Visibility
140° at 4 knots 10 miles
Clouds
  • Clear skies
Temperature Dewpoint
25°C / 77°F 15°C / 59°F
Humidity Altimeter Pressure
54% 30.03" Hg 1017 hPa